Time;durP1;ratioP1;P1;durP2;ratioP2;P2;SDS_P1;SDS_P2;PMS_P1;PMS_P2;Temp;Humidity;BMP_temperature;BMP_pressure;BME280_temperature;BME280_humidity;BME280_pressure;Samples;Min_cycle;Max_cycle;Signal;HPM_P1;HPM_P2
2023/04/01 00:00:32;;;;;;;;;;;;;;;18.06;66.11;99010.42;2323576;76;51471;-74
2023/04/01 00:03:34;;;;;;;;;;;;;;;18.07;66.05;99005.88;2291818;76;50540;-74
2023/04/01 00:06:36;;;;;;;;;;;;;;;18.07;65.82;99001.87;2310596;76;50734;-74
2023/04/01 00:09:38;;;;;;;;;;;;;;;18.08;65.96;99001.34;2322371;76;51427;-74
2023/04/01 00:12:40;;;;;;;;;;;;;;;18.06;65.81;99004.26;2291957;76;52476;-74
2023/04/01 00:15:42;;;;;;;;;;;;;;;18.06;65.96;99006.41;2323378;76;50588;-74
2023/04/01 00:18:43;;;;;;;;;;;;;;;18.06;65.92;99002.39;2323636;76;51523;-74
2023/04/01 00:21:46;;;;;;;;;;;;;;;18.05;65.97;99011.44;2323563;76;51558;-75
2023/04/01 00:24:47;;;;;;;;;;;;;;;18.05;65.92;99010.11;2292317;76;52091;-75
2023/04/01 00:27:49;;;;;;;;;;;;;;;18.06;65.88;99011.77;2291990;76;50698;-74
2023/04/01 00:30:51;;;;;;;;;;;;;;;18.05;65.88;99006.61;2323595;75;50372;-74
2023/04/01 00:33:53;;;;;;;;;;;;;;;18.09;65.93;99007.02;2291933;76;51555;-74
2023/04/01 00:36:55;;;;;;;;;;;;;;;18.07;65.94;99004.55;2279013;75;52636;-74
2023/04/01 00:39:56;;;;;;;;;;;;;;;18.05;65.82;98998.06;2322616;76;50725;-74
2023/04/01 00:42:58;;;;;;;;;;;;;;;18.05;65.87;98998.06;2323424;76;50259;-74
2023/04/01 00:46:00;;;;;;;;;;;;;;;18.05;65.99;98999.92;2323265;76;51597;-74
2023/04/01 00:49:01;;;;;;;;;;;;;;;18.06;65.96;98993.55;2266734;76;53261;-74
2023/04/01 00:52:03;;;;;;;;;;;;;;;18.05;65.97;99000.73;2323320;76;50776;-74
2023/04/01 00:55:05;;;;;;;;;;;;;;;18.05;66.02;99000.73;2323201;76;50793;-74
2023/04/01 00:58:07;;;;;;;;;;;;;;;18.05;65.90;99007.95;2323605;76;50279;-74
2023/04/01 01:01:09;;;;;;;;;;;;;;;18.03;66.09;99002.84;2224515;77;52464;-74
2023/04/01 01:04:24;;;;;;;;;;;;;;;18.05;65.82;99002.08;2239345;79;50357;-75
2023/04/01 01:07:30;;;;;;;;;;;;;;;18.05;65.81;99002.08;2295964;76;51608;-74
2023/04/01 01:10:33;;;;;;;;;;;;;;;18.04;65.91;98999.11;2305851;75;51199;-74
2023/04/01 01:13:37;;;;;;;;;;;;;;;18.04;65.77;99000.97;2290699;76;50949;-74
2023/04/01 01:16:40;;;;;;;;;;;;;;;18.04;65.85;98999.11;2323603;76;50987;-74
2023/04/01 01:19:47;;;;;;;;;;;;;;;18.04;65.85;98997.77;2323450;75;50828;-76
2023/04/01 01:22:54;;;;;;;;;;;;;;;18.05;65.82;99007.95;2323195;75;23055;-75
2023/04/01 01:26:12;;;;;;;;;;;;;;;18.03;65.75;99006.85;2281161;76;51047;-74
2023/04/01 01:29:32;;;;;;;;;;;;;;;18.04;65.59;99004.98;2323654;76;50468;-73
2023/04/01 01:32:45;;;;;;;;;;;;;;;18.02;65.81;99006.53;2291801;76;50192;-73
2023/04/01 01:35:50;;;;;;;;;;;;;;;18.02;66.00;99004.38;2310319;76;50422;-74
2023/04/01 01:38:51;;;;;;;;;;;;;;;18.03;66.03;99012.20;2289747;76;52666;-74
2023/04/01 01:41:53;;;;;;;;;;;;;;;18.02;65.87;99021.25;2320550;76;50383;-74
2023/04/01 01:44:55;;;;;;;;;;;;;;;18.03;65.96;99012.70;2320400;76;50638;-74
2023/04/01 01:47:57;;;;;;;;;;;;;;;18.04;65.83;99013.83;2320652;76;51505;-74
2023/04/01 01:50:59;;;;;;;;;;;;;;;18.03;65.86;99012.70;2289039;76;49808;-74
2023/04/01 01:54:00;;;;;;;;;;;;;;;18.04;65.86;99014.36;2288836;76;51516;-74
2023/04/01 01:57:04;;;;;;;;;;;;;;;18.03;65.97;99021.57;2320607;76;51633;-73
2023/04/01 02:00:12;;;;;;;;;;;;;;;18.04;66.03;99013.83;2317822;75;51575;-73
2023/04/01 02:03:10;;;;;;;;;;;;;;;18.04;65.92;99023.20;2319778;75;22327;-73
2023/04/01 02:06:14;;;;;;;;;;;;;;;18.02;65.90;99017.23;2307764;76;50335;-74
2023/04/01 02:09:15;;;;;;;;;;;;;;;18.05;65.92;99018.66;2321524;76;50401;-74
2023/04/01 02:12:17;;;;;;;;;;;;;;;18.04;65.81;99019.19;2320501;76;51458;-74
2023/04/01 02:15:19;;;;;;;;;;;;;;;18.04;65.74;99027.73;2290089;76;51229;-74
2023/04/01 02:18:20;;;;;;;;;;;;;;;18.02;65.77;99022.59;2322323;76;51460;-74
2023/04/01 02:21:22;;;;;;;;;;;;;;;18.04;65.84;99022.38;2322261;76;51546;-75
2023/04/01 02:24:24;;;;;;;;;;;;;;;18.03;65.95;99014.88;2322059;76;51820;-75
2023/04/01 02:27:26;;;;;;;;;;;;;;;18.05;65.87;99024.83;2321998;76;50737;-75
2023/04/01 02:30:27;;;;;;;;;;;;;;;18.05;65.82;99022.67;2322157;76;50668;-75
2023/04/01 02:33:29;;;;;;;;;;;;;;;18.02;65.91;99021.25;2321998;76;50323;-75
2023/04/01 02:36:31;;;;;;;;;;;;;;;18.03;65.92;99022.06;2310738;76;52224;-75
2023/04/01 02:39:32;;;;;;;;;;;;;;;18.02;66.00;99027.95;2292213;76;51533;-75
2023/04/01 02:42:34;;;;;;;;;;;;;;;18.02;66.03;99029.28;2325140;76;50424;-75
2023/04/01 02:45:36;;;;;;;;;;;;;;;18.03;65.91;99036.30;2324864;76;51457;-75
2023/04/01 02:48:37;;;;;;;;;;;;;;;18.02;65.81;99041.33;2324910;76;50684;-75
2023/04/01 02:51:39;;;;;;;;;;;;;;;18.02;65.86;99040.52;2267623;76;51352;-74
2023/04/01 02:54:41;;;;;;;;;;;;;;;18.03;66.04;99042.14;2324278;76;51472;-74
2023/04/01 02:57:42;;;;;;;;;;;;;;;18.01;65.89;99042.38;2326476;76;51709;-74
2023/04/01 03:00:44;;;;;;;;;;;;;;;18.02;65.95;99050.70;2297091;76;50655;-76
2023/04/01 03:03:45;;;;;;;;;;;;;;;18.04;65.89;99046.47;2267659;76;51055;-74
2023/04/01 03:06:47;;;;;;;;;;;;;;;18.03;65.95;99051.02;2311489;76;50119;-74
2023/04/01 03:09:48;;;;;;;;;;;;;;;18.02;66.01;99053.37;2325079;76;50292;-75
2023/04/01 03:12:50;;;;;;;;;;;;;;;18.01;65.89;99049.06;2297351;76;50670;-75
2023/04/01 03:15:51;;;;;;;;;;;;;;;18.01;65.82;99045.05;2293824;76;51422;-74
2023/04/01 03:18:55;;;;;;;;;;;;;;;18.03;65.82;99048.34;2324779;76;51506;-76
2023/04/01 03:21:56;;;;;;;;;;;;;;;18.01;65.78;99049.06;2326057;76;50109;-75
2023/04/01 03:24:58;;;;;;;;;;;;;;;18.00;65.77;99046.07;2329296;74;50783;-75
2023/04/01 03:27:59;;;;;;;;;;;;;;;18.01;65.91;99054.94;2293195;76;51741;-75
2023/04/01 03:31:01;;;;;;;;;;;;;;;18.02;66.00;99057.38;2325429;76;50650;-75
2023/04/01 03:34:03;;;;;;;;;;;;;;;18.02;65.80;99059.25;2325550;76;50659;-74
2023/04/01 03:37:05;;;;;;;;;;;;;;;18.02;65.92;99049.36;2324263;76;51439;-74
2023/04/01 03:40:07;;;;;;;;;;;;;;;18.02;65.97;99056.57;2292547;76;49619;-75
2023/04/01 03:43:09;;;;;;;;;;;;;;;18.02;65.90;99064.08;2293716;76;50327;-75
2023/04/01 03:46:11;;;;;;;;;;;;;;;18.00;65.84;99064.80;2324475;76;51504;-74
2023/04/01 03:49:12;;;;;;;;;;;;;;;18.01;65.95;99066.46;2293458;76;51493;-73
2023/04/01 03:52:14;;;;;;;;;;;;;;;18.01;65.82;99069.14;2267627;76;50974;-74
2023/04/01 03:55:17;;;;;;;;;;;;;;;18.00;65.86;99068.82;2292843;76;52203;-75
2023/04/01 03:58:19;;;;;;;;;;;;;;;18.00;65.89;99070.16;2324372;76;51701;-75
2023/04/01 04:01:21;;;;;;;;;;;;;;;18.00;65.87;99074.17;2324431;76;50739;-75
2023/04/01 04:04:23;;;;;;;;;;;;;;;18.00;65.83;99078.19;2292470;76;51819;-75
2023/04/01 04:07:24;;;;;;;;;;;;;;;18.03;65.81;99075.59;2278788;76;50808;-75
2023/04/01 04:10:26;;;;;;;;;;;;;;;18.01;65.71;99085.20;2292626;76;50666;-75
2023/04/01 04:13:28;;;;;;;;;;;;;;;18.03;65.80;99087.64;2324260;76;50435;-74
2023/04/01 04:16:29;;;;;;;;;;;;;;;18.01;65.86;99087.06;2267516;76;51113;-75
2023/04/01 04:19:34;;;;;;;;;;;;;;;18.02;65.67;99084.15;2324775;76;50337;-75
2023/04/01 04:22:35;;;;;;;;;;;;;;;18.01;65.84;99089.21;2293250;76;51518;-75
2023/04/01 04:25:37;;;;;;;;;;;;;;;18.02;65.73;99094.85;2324389;76;51641;-75
2023/04/01 04:28:38;;;;;;;;;;;;;;;18.01;65.87;99097.23;2292973;76;50978;-76
2023/04/01 04:31:40;;;;;;;;;;;;;;;18.01;65.83;99093.22;2324509;76;50691;-75
2023/04/01 04:34:42;;;;;;;;;;;;;;;18.00;65.80;99096.92;2324313;76;51514;-74
2023/04/01 04:37:43;;;;;;;;;;;;;;;18.01;65.80;99099.91;2323632;76;50438;-74
2023/04/01 04:40:45;;;;;;;;;;;;;;;17.99;65.75;99099.30;2264948;76;51675;-75
2023/04/01 04:43:54;;;;;;;;;;;;;;;18.02;65.74;99106.08;2321386;76;50287;-74
2023/04/01 04:46:55;;;;;;;;;;;;;;;18.02;65.84;99111.44;2321612;76;50357;-75
2023/04/01 04:49:57;;;;;;;;;;;;;;;18.01;65.61;99109.28;2321841;76;50404;-74
2023/04/01 04:52:58;;;;;;;;;;;;;;;18.00;65.77;99107.63;2264685;76;50163;-74
2023/04/01 04:56:00;;;;;;;;;;;;;;;18.01;65.62;99113.30;2321013;76;50666;-74
2023/04/01 04:59:02;;;;;;;;;;;;;;;18.00;65.76;99108.96;2321270;76;51509;-75
2023/04/01 05:02:03;;;;;;;;;;;;;;;18.00;65.80;99106.81;2321233;76;50835;-75
2023/04/01 05:05:05;;;;;;;;;;;;;;;18.01;65.70;99113.30;2262167;76;52799;-75
2023/04/01 05:08:07;;;;;;;;;;;;;;;18.00;65.81;99114.31;2282115;76;50314;-74
2023/04/01 05:11:13;;;;;;;;;;;;;;;18.00;65.69;99118.85;2290166;76;51554;-74
2023/04/01 05:14:15;;;;;;;;;;;;;;;18.00;65.62;99123.68;2315504;75;50696;-75
2023/04/01 05:17:17;;;;;;;;;;;;;;;18.01;65.67;99125.34;2289984;76;51122;-75
2023/04/01 05:20:18;;;;;;;;;;;;;;;18.00;65.70;99123.68;2290735;76;50676;-74
2023/04/01 05:23:21;;;;;;;;;;;;;;;17.99;65.67;99126.06;2289924;76;50263;-74
2023/04/01 05:26:22;;;;;;;;;;;;;;;18.01;65.66;99124.53;2321523;76;50719;-75
2023/04/01 05:29:24;;;;;;;;;;;;;;;18.01;65.72;99130.69;2289771;76;51660;-75
2023/04/01 05:32:26;;;;;;;;;;;;;;;18.00;65.66;99129.03;2290162;76;50359;-74
2023/04/01 05:35:27;;;;;;;;;;;;;;;18.01;65.77;99133.38;2313521;76;50429;-74
2023/04/01 05:38:29;;;;;;;;;;;;;;;18.00;65.78;99133.58;2287051;76;50712;-73
2023/04/01 05:41:30;;;;;;;;;;;;;;;17.99;65.62;99132.77;2321796;76;49933;-74
2023/04/01 05:44:34;;;;;;;;;;;;;;;17.98;65.46;99134.30;2290616;76;50775;-76
2023/04/01 05:47:37;;;;;;;;;;;;;;;17.97;65.35;99138.84;2323138;75;51467;-77
2023/04/01 05:50:40;;;;;;;;;;;;;;;17.97;65.56;99139.36;2323235;76;50803;-76
2023/04/01 05:53:43;;;;;;;;;;;;;;;17.99;65.46;99141.31;2266533;76;50010;-75
2023/04/01 05:56:47;;;;;;;;;;;;;;;17.98;65.41;99148.53;2323394;76;50730;-76
2023/04/01 05:59:59;;;;;;;;;;;;;;;17.99;65.52;99153.36;2311209;75;21932;-76
2023/04/01 06:03:02;;;;;;;;;;;;;;;17.99;65.46;99148.00;2323346;76;21834;-77
2023/04/01 06:06:08;;;;;;;;;;;;;;;17.97;65.34;99155.42;2321550;76;50836;-77
2023/04/01 06:09:23;;;;;;;;;;;;;;;17.97;65.39;99157.57;2321253;76;49870;-77
2023/04/01 06:12:26;;;;;;;;;;;;;;;17.95;65.40;99158.30;2324213;76;51683;-75
2023/04/01 06:15:33;;;;;;;;;;;;;;;17.98;65.36;99162.41;2324166;76;52724;-75
2023/04/01 06:18:39;;;;;;;;;;;;;;;17.96;65.55;99165.31;2325173;76;50822;-75
2023/04/01 06:22:00;;;;;;;;;;;;;;;17.98;65.36;99175.78;2293631;75;51614;-76
2023/04/01 06:25:10;;;;;;;;;;;;;;;17.96;65.34;99173.34;2324612;75;50892;-75
2023/04/01 06:28:29;;;;;;;;;;;;;;;17.95;65.31;99174.36;2324776;75;51538;-75
2023/04/01 06:31:32;;;;;;;;;;;;;;;17.95;65.37;99178.89;2312805;76;50555;-75
2023/04/01 06:34:39;;;;;;;;;;;;;;;17.96;65.54;99179.22;2292966;76;51826;-76
2023/04/01 06:37:57;;;;;;;;;;;;;;;17.95;65.38;99178.89;2307488;76;50666;-76
2023/04/01 06:41:16;;;;;;;;;;;;;;;17.95;65.37;99186.92;2325078;76;50476;-76
2023/04/01 06:44:19;;;;;;;;;;;;;;;17.96;65.50;99186.72;2325018;76;50885;-76
2023/04/01 06:47:35;;;;;;;;;;;;;;;17.95;65.35;99186.40;2325145;75;51410;-77
2023/04/01 06:50:41;;;;;;;;;;;;;;;17.95;65.35;99189.08;2324777;75;50819;-76
2023/04/01 06:53:50;;;;;;;;;;;;;;;17.97;65.31;99191.55;2324442;75;50791;-75
2023/04/01 06:56:55;;;;;;;;;;;;;;;17.95;65.00;99189.08;2324940;76;50727;-75
2023/04/01 06:59:58;;;;;;;;;;;;;;;17.95;65.33;99197.62;2313322;76;50768;-75
2023/04/01 07:03:04;;;;;;;;;;;;;;;17.96;65.48;99195.27;2323662;76;50891;-75
2023/04/01 07:06:07;;;;;;;;;;;;;;;17.97;65.82;99196.38;2322161;74;50526;-76
2023/04/01 07:09:11;;;;;;;;;;;;;;;17.99;66.30;99196.17;2322320;75;51639;-76
2023/04/01 07:12:35;;;;;;;;;;;;;;;18.00;66.54;99203.97;2290745;76;51759;-76
2023/04/01 07:15:39;;;;;;;;;;;;;;;18.06;66.02;99199.12;2322989;75;22376;-76
2023/04/01 07:18:43;;;;;;;;;;;;;;;18.09;66.59;99205.08;2323416;76;50852;-76
2023/04/01 07:21:55;;;;;;;;;;;;;;;18.09;65.92;99201.06;2323663;76;50863;-75
2023/04/01 07:24:57;;;;;;;;;;;;;;;18.08;65.78;99206.09;2290282;76;50577;-76
2023/04/01 07:28:04;;;;;;;;;;;;;;;18.05;65.82;99204.67;2322858;76;50714;-76
2023/04/01 07:31:07;;;;;;;;;;;;;;;18.04;65.82;99207.87;2311690;75;53228;-76
2023/04/01 07:34:15;;;;;;;;;;;;;;;18.02;65.87;99211.28;2323391;75;51475;-75
2023/04/01 07:37:30;;;;;;;;;;;;;;;18.01;65.84;99213.66;2293178;76;52513;-75
2023/04/01 07:40:33;;;;;;;;;;;;;;;18.02;65.77;99217.16;2325314;75;50285;-76
2023/04/01 07:43:49;;;;;;;;;;;;;;;18.01;65.79;99219.02;2303935;75;51447;-76
2023/04/01 07:46:52;;;;;;;;;;;;;;;18.01;65.75;99223.55;2324755;75;50776;-76
2023/04/01 07:49:56;;;;;;;;;;;;;;;18.02;65.71;99226.52;2293630;76;51096;-76
2023/04/01 07:52:59;;;;;;;;;;;;;;;18.00;65.69;99216.02;2293397;76;52879;-77
2023/04/01 07:56:02;;;;;;;;;;;;;;;18.02;65.71;99225.18;2324971;75;50453;-75
2023/04/01 07:59:11;;;;;;;;;;;;;;;18.09;65.57;99222.48;2324759;76;50453;-75
2023/04/01 08:02:24;;;;;;;;;;;;;;;18.09;65.59;99228.65;2284187;76;51771;-73
2023/04/01 08:05:31;;;;;;;;;;;;;;;18.10;65.62;99222.77;2324904;76;50328;-75
2023/04/01 08:08:43;;;;;;;;;;;;;;;18.14;65.75;99226.67;2325311;75;22263;-76
2023/04/01 08:11:50;;;;;;;;;;;;;;;18.18;65.60;99233.22;2325298;76;50444;-78
2023/04/01 08:15:10;;;;;;;;;;;;;;;18.18;65.43;99229.20;2292403;75;50362;-74
2023/04/01 08:18:23;;;;;;;;;;;;;;;18.22;65.34;99238.47;2325140;76;50271;-74
2023/04/01 08:21:25;;;;;;;;;;;;;;;18.16;65.46;99231.27;2324810;75;50698;-74
2023/04/01 08:24:31;;;;;;;;;;;;;;;18.15;65.79;99236.34;2324952;75;50791;-74
2023/04/01 08:27:37;;;;;;;;;;;;;;;18.12;65.66;99240.27;2293582;76;51913;-74
2023/04/01 08:30:42;;;;;;;;;;;;;;;18.11;65.74;99242.64;2298520;75;50084;-74
2023/04/01 08:33:48;;;;;;;;;;;;;;;18.11;65.69;99243.14;2309978;76;51778;-75
2023/04/01 08:36:55;;;;;;;;;;;;;;;18.09;65.62;99246.57;2291895;76;52687;-75
2023/04/01 08:39:58;;;;;;;;;;;;;;;18.09;65.67;99250.59;2322532;76;51501;-75
2023/04/01 08:43:07;;;;;;;;;;;;;;;18.08;65.57;99253.76;2291930;76;51171;-75
2023/04/01 08:46:14;;;;;;;;;;;;;;;18.08;65.56;99263.13;2323620;76;51503;-74
2023/04/01 08:49:34;;;;;;;;;;;;;;;18.10;65.52;99270.95;2323707;76;50270;-74
2023/04/01 08:52:37;;;;;;;;;;;;;;;18.10;65.46;99262.92;2292421;76;52683;-74
2023/04/01 08:55:43;;;;;;;;;;;;;;;18.09;65.45;99266.12;2290898;76;50994;-74
2023/04/01 08:58:59;;;;;;;;;;;;;;;18.11;65.34;99272.58;2322519;75;51510;-74
2023/04/01 09:02:11;;;;;;;;;;;;;;;18.09;65.35;99266.12;2301632;76;50715;-73
2023/04/01 09:05:22;;;;;;;;;;;;;;;18.10;65.25;99273.11;2290920;76;52613;-75
2023/04/01 09:08:25;;;;;;;;;;;;;;;18.10;65.24;99269.62;2323478;75;50582;-73
2023/04/01 09:11:31;;;;;;;;;;;;;;;18.12;65.19;99270.23;2322899;75;50721;-74
2023/04/01 09:14:34;;;;;;;;;;;;;;;18.08;65.22;99280.52;2323299;76;51646;-74
2023/04/01 09:17:37;;;;;;;;;;;;;;;18.06;65.17;99276.74;2291547;76;52612;-74
2023/04/01 09:20:40;;;;;;;;;;;;;;;18.06;65.20;99291.46;2323528;76;51693;-74
2023/04/01 09:23:50;;;;;;;;;;;;;;;18.05;65.19;99303.70;2323070;76;51485;-74
2023/04/01 09:27:10;;;;;;;;;;;;;;;18.03;65.22;99301.27;2322420;75;51599;-73
2023/04/01 09:30:22;;;;;;;;;;;;;;;18.03;65.19;99305.28;2279997;76;52740;-74
2023/04/01 09:33:47;;;;;;;;;;;;;;;18.02;65.20;99306.81;2320672;75;50795;-75
2023/04/01 09:37:06;;;;;;;;;;;;;;;18.01;65.23;99315.36;2321635;76;51524;-75
2023/04/01 09:40:19;;;;;;;;;;;;;;;18.00;65.22;99319.05;2321828;76;51505;-74
2023/04/01 09:43:25;;;;;;;;;;;;;;;18.01;65.20;99317.23;2289810;76;51337;-75
2023/04/01 09:46:47;;;;;;;;;;;;;;;18.01;65.07;99323.92;2321829;76;51467;-75
2023/04/01 09:50:02;;;;;;;;;;;;;;;17.99;65.02;99326.80;2321981;76;51559;-75
2023/04/01 09:53:08;;;;;;;;;;;;;;;18.00;64.98;99324.41;2321421;76;50010;-76
2023/04/01 09:56:18;;;;;;;;;;;;;;;17.99;64.84;99329.98;2289565;76;51066;-75
2023/04/01 09:59:38;;;;;;;;;;;;;;;17.97;64.82;99334.20;2316773;76;50529;-74
2023/04/01 10:02:50;;;;;;;;;;;;;;;17.98;64.86;99338.55;2306642;76;51610;-75
2023/04/01 10:05:54;;;;;;;;;;;;;;;18.00;64.95;99343.14;2321168;76;51543;-73
2023/04/01 10:09:14;;;;;;;;;;;;;;;17.98;64.85;99347.06;2288970;76;51058;-73
2023/04/01 10:12:19;;;;;;;;;;;;;;;17.99;64.82;99346.05;2321031;76;50288;-73
2023/04/01 10:15:28;;;;;;;;;;;;;;;17.98;64.80;99348.41;2320860;75;50716;-74
2023/04/01 15:03:25;;;;;;;;;;;;;;;18.11;63.88;99652.71;2304511;71;23627;-72
2023/04/01 15:06:46;;;;;;;;;;;;;;;18.06;64.13;99652.83;2315017;75;49680;-71
2023/04/01 15:09:50;;;;;;;;;;;;;;;18.08;64.01;99664.65;2349084;74;51661;-72
2023/04/01 15:13:10;;;;;;;;;;;;;;;18.07;63.97;99656.32;2344535;76;50345;-72
2023/04/01 15:16:29;;;;;;;;;;;;;;;18.06;64.06;99663.53;2344889;76;50469;-72
2023/04/01 15:19:32;;;;;;;;;;;;;;;18.05;64.07;99665.06;2310103;76;50180;-73
2023/04/01 15:22:41;;;;;;;;;;;;;;;18.04;64.08;99670.12;2343953;76;51665;-73
2023/04/01 15:26:01;;;;;;;;;;;;;;;18.03;64.01;99680.01;2344685;76;51534;-71
2023/04/01 15:29:04;;;;;;;;;;;;;;;18.03;64.10;99671.98;2305917;77;50331;-72
2023/04/01 15:32:07;;;;;;;;;;;;;;;18.04;63.95;99678.97;2309880;75;51376;-73
2023/04/01 15:35:17;;;;;;;;;;;;;;;18.04;63.85;99680.30;2351950;74;50007;-72
2023/04/01 15:38:29;;;;;;;;;;;;;;;18.05;63.81;99681.94;2352684;75;51513;-73
2023/04/01 15:41:41;;;;;;;;;;;;;;;18.10;63.64;99693.91;2353182;74;50341;-73
2023/04/01 15:45:03;;;;;;;;;;;;;;;18.07;63.78;99700.49;2320469;75;52691;-73
2023/04/01 15:48:12;;;;;;;;;;;;;;;18.08;63.73;99706.66;2353262;75;50649;-73
2023/04/01 15:51:18;;;;;;;;;;;;;;;18.07;63.73;99708.52;2353035;75;51583;-73
2023/04/01 15:54:25;;;;;;;;;;;;;;;18.04;63.77;99712.43;2353215;75;50361;-73
2023/04/01 15:57:31;;;;;;;;;;;;;;;18.03;63.81;99722.84;2352595;75;50722;-73
2023/04/01 16:00:34;;;;;;;;;;;;;;;18.12;63.39;99724.80;2352932;74;50394;-74
2023/04/01 16:03:47;;;;;;;;;;;;;;;18.11;63.58;99729.01;2350957;74;51682;-72
2023/04/01 16:06:53;;;;;;;;;;;;;;;18.09;63.68;99727.89;2352585;74;51611;-73
2023/04/01 16:13:42;;;;;;;;;;;;;;;18.02;63.72;99727.86;2296505;77;22333;-73
2023/04/01 16:17:01;;;;;;;;;;;;;;;18.00;64.29;99737.94;2296442;77;22401;-74
2023/04/01 16:20:04;;;;;;;;;;;;;;;17.97;63.88;99741.54;2289230;77;51416;-73
2023/04/01 16:23:20;;;;;;;;;;;;;;;17.95;63.78;99756.45;2219199;78;52629;-73
2023/04/01 16:26:29;;;;;;;;;;;;;;;17.97;63.82;99758.42;2221392;80;50370;-73
2023/04/01 16:29:35;;;;;;;;;;;;;;;17.95;63.51;99760.47;2221366;80;50455;-73
2023/04/01 16:32:38;;;;;;;;;;;;;;;18.02;63.08;99769.35;2234050;78;51539;-73
2023/04/01 16:35:47;;;;;;;;;;;;;;;18.13;62.89;99777.31;2246095;78;51642;-73
2023/04/01 16:38:53;;;;;;;;;;;;;;;18.23;62.61;99778.27;2258438;78;50784;-72
2023/04/01 16:42:08;;;;;;;;;;;;;;;18.24;62.51;99783.44;2249172;77;50346;-72
2023/04/01 16:45:17;;;;;;;;;;;;;;;18.33;62.16;99791.28;2295790;77;51613;-73
2023/04/01 16:48:21;;;;;;;;;;;;;;;18.28;62.18;99795.37;2271545;76;51056;-75
2023/04/01 16:51:22;;;;;;;;;;;;;;;18.30;62.25;99803.22;2296482;76;50489;-71
2023/04/01 16:54:25;;;;;;;;;;;;;;;18.29;62.73;99805.60;2336531;76;50318;-73
2023/04/01 16:57:29;;;;;;;;;;;;;;;18.31;62.65;99812.89;2296949;77;50329;-72
2023/04/01 17:00:32;;;;;;;;;;;;;;;18.27;63.24;99817.02;2299884;76;52654;-73
2023/04/01 17:03:45;;;;;;;;;;;;;;;18.18;63.67;99819.55;2334068;76;51460;-73
2023/04/01 17:06:58;;;;;;;;;;;;;;;18.17;63.44;99825.95;2333930;76;50481;-71
2023/04/01 17:10:01;;;;;;;;;;;;;;;18.22;62.94;99840.90;2335334;76;52216;-72
2023/04/01 17:13:10;;;;;;;;;;;;;;;18.15;65.00;99839.52;2336633;76;50471;-74
2023/04/01 17:16:16;;;;;;;;;;;;;;;18.13;63.64;99842.91;2336482;76;50557;-73
2023/04/01 17:19:25;;;;;;;;;;;;;;;18.13;64.54;99858.14;2285970;77;50490;-73
2023/04/01 17:22:28;;;;;;;;;;;;;;;18.11;65.43;99861.04;2288997;77;50366;-73
2023/04/01 17:25:32;;;;;;;;;;;;;;;18.11;65.03;99870.90;2285846;77;50891;-74
2023/04/01 17:28:36;;;;;;;;;;;;;;;18.13;64.16;99871.02;2273909;77;51641;-74
2023/04/01 17:31:48;;;;;;;;;;;;;;;18.15;63.88;99881.02;2266503;77;50681;-72
2023/04/01 17:34:54;;;;;;;;;;;;;;;18.12;63.84;99888.63;2283791;78;51541;-72
2023/04/01 17:38:07;;;;;;;;;;;;;;;18.11;63.81;99894.50;2310908;77;55490;-73
2023/04/01 17:41:10;;;;;;;;;;;;;;;18.11;64.16;99889.16;2276345;78;50472;-74
2023/04/01 17:44:30;;;;;;;;;;;;;;;18.09;64.51;99904.58;2315918;77;50092;-75
2023/04/01 17:47:42;;;;;;;;;;;;;;;18.09;64.07;99905.10;2315754;77;51664;-74
2023/04/01 17:50:48;;;;;;;;;;;;;;;18.08;64.09;99911.45;2283560;77;50202;-75
2023/04/01 17:53:51;;;;;;;;;;;;;;;18.08;64.16;99917.63;2319039;75;51637;-75
2023/04/01 17:57:02;;;;;;;;;;;;;;;18.05;64.10;99920.19;2319093;76;51454;-76
2023/04/01 18:00:21;;;;;;;;;;;;;;;18.06;64.01;99922.38;2275995;77;50261;-74
2023/04/01 18:03:41;;;;;;;;;;;;;;;18.08;63.94;99928.86;2252733;78;51077;-75
2023/04/01 18:06:45;;;;;;;;;;;;;;;18.09;63.71;99934.03;2259274;78;50312;-74
2023/04/01 18:09:53;;;;;;;;;;;;;;;18.10;63.65;99949.58;2259041;78;50467;-74
2023/04/01 18:13:00;;;;;;;;;;;;;;;18.06;63.67;99945.95;2238690;77;51534;-73
2023/04/01 18:16:03;;;;;;;;;;;;;;;18.06;63.15;99958.52;2277678;77;52521;-75
2023/04/01 18:19:12;;;;;;;;;;;;;;;18.08;63.19;99956.45;2296871;77;51268;-74
2023/04/01 18:22:24;;;;;;;;;;;;;;;18.15;63.01;99964.54;2296335;77;50210;-76
2023/04/01 18:25:31;;;;;;;;;;;;;;;18.17;62.97;99977.22;2263971;77;51460;-75
2023/04/01 18:28:46;;;;;;;;;;;;;;;18.19;62.87;99987.23;2289251;76;51053;-76
2023/04/01 18:31:49;;;;;;;;;;;;;;;18.18;62.90;99987.72;2314287;76;50702;-76
2023/04/01 18:35:02;;;;;;;;;;;;;;;18.17;62.83;99987.94;2278984;77;50362;-75
2023/04/01 18:38:05;;;;;;;;;;;;;;;18.16;62.92;99991.13;2307898;76;51562;-76
2023/04/01 18:41:27;;;;;;;;;;;;;;;18.15;63.05;100002.02;2300457;76;52395;-75
2023/04/01 18:44:30;;;;;;;;;;;;;;;18.14;63.10;100017.27;2319096;76;51529;-74
2023/04/01 18:47:50;;;;;;;;;;;;;;;18.11;63.04;100019.48;2303400;76;51460;-74
2023/04/01 18:50:53;;;;;;;;;;;;;;;18.14;62.86;100023.14;2335821;76;51571;-73
2023/04/01 18:53:57;;;;;;;;;;;;;;;18.11;62.73;100032.88;2304533;76;51018;-75
2023/04/01 18:57:03;;;;;;;;;;;;;;;18.10;62.92;100039.27;2336543;76;51470;-73
2023/04/01 19:00:15;;;;;;;;;;;;;;;18.10;62.73;100049.97;2296232;76;50354;-75
2023/04/01 19:03:35;;;;;;;;;;;;;;;18.14;62.68;100053.93;2264054;77;51658;-72
2023/04/01 19:06:47;;;;;;;;;;;;;;;18.12;62.84;100054.11;2240311;78;50271;-74
2023/04/01 19:09:48;;;;;;;;;;;;;;;18.12;62.71;100057.30;2277406;76;22325;-75
2023/04/01 19:12:57;;;;;;;;;;;;;;;18.10;62.52;100058.83;2322717;76;50467;-75
2023/04/01 19:16:01;;;;;;;;;;;;;;;18.09;62.59;100057.70;2285964;76;50722;-74
2023/04/01 19:19:07;;;;;;;;;;;;;;;18.08;62.48;100076.10;2310848;76;51241;-74
2023/04/01 19:22:13;;;;;;;;;;;;;;;18.05;62.55;100072.78;2318825;76;51658;-74
2023/04/01 19:25:22;;;;;;;;;;;;;;;18.04;62.58;100068.98;2319269;75;51699;-74
2023/04/01 19:28:32;;;;;;;;;;;;;;;18.06;62.59;100069.11;2319674;76;51527;-75
2023/04/01 19:31:35;;;;;;;;;;;;;;;18.10;62.60;100080.76;2326059;76;49680;-74
2023/04/01 19:34:55;;;;;;;;;;;;;;;18.12;62.52;100086.76;2321120;76;51530;-75
2023/04/01 19:37:58;;;;;;;;;;;;;;;18.12;62.58;100087.58;2319061;76;50717;-76
2023/04/01 19:41:01;;;;;;;;;;;;;;;18.13;62.45;100095.09;2334524;75;50248;-75
2023/04/01 19:44:16;;;;;;;;;;;;;;;18.17;62.31;100097.72;2330923;75;51395;-74
2023/04/01 19:47:20;;;;;;;;;;;;;;;18.15;62.36;100107.78;2336661;76;51586;-75
2023/04/01 19:50:34;;;;;;;;;;;;;;;18.16;62.35;100116.13;2336138;76;51527;-75
2023/04/01 19:53:39;;;;;;;;;;;;;;;18.11;62.36;100115.39;2336656;76;22349;-76
2023/04/01 19:56:46;;;;;;;;;;;;;;;18.11;62.81;100123.91;2330169;76;51416;-75
2023/04/01 19:59:49;;;;;;;;;;;;;;;18.13;62.62;100137.94;2336365;76;50784;-75
2023/04/01 20:02:58;;;;;;;;;;;;;;;18.18;62.45;100140.34;2258694;77;52585;-75
2023/04/01 20:06:02;;;;;;;;;;;;;;;18.19;62.39;100144.70;2297138;77;55678;-74
2023/04/01 20:09:08;;;;;;;;;;;;;;;18.18;62.39;100148.89;2291539;77;50981;-75
2023/04/01 20:12:20;;;;;;;;;;;;;;;18.19;62.43;100149.23;2322784;75;50463;-76
2023/04/01 20:15:26;;;;;;;;;;;;;;;18.15;62.70;100164.02;2323103;76;51666;-75
2023/04/01 20:18:29;;;;;;;;;;;;;;;18.11;62.90;100173.44;2322911;76;50508;-73
2023/04/01 20:21:36;;;;;;;;;;;;;;;18.09;62.81;100174.16;2288794;76;49923;-73
2023/04/01 20:24:38;;;;;;;;;;;;;;;18.09;62.75;100180.86;2322949;76;51686;-74
2023/04/01 20:27:41;;;;;;;;;;;;;;;18.02;63.21;100189.63;2322990;76;50532;-74
2023/04/01 20:31:01;;;;;;;;;;;;;;;17.99;63.28;100196.71;2322653;75;51554;-74
2023/04/01 20:34:10;;;;;;;;;;;;;;;18.08;62.35;100199.26;2263494;77;51422;-73
2023/04/01 20:37:23;;;;;;;;;;;;;;;18.16;62.05;100201.80;2257432;78;51641;-74
2023/04/01 20:40:27;;;;;;;;;;;;;;;18.14;62.15;100207.89;2301617;76;51561;-73
2023/04/01 20:43:36;;;;;;;;;;;;;;;18.08;62.52;100208.62;2251528;79;50383;-73
2023/04/01 20:46:45;;;;;;;;;;;;;;;18.01;62.94;100216.09;2273166;77;50444;-73
2023/04/01 20:49:59;;;;;;;;;;;;;;;17.99;63.02;100224.82;2297277;77;51522;-74
2023/04/01 20:53:17;;;;;;;;;;;;;;;17.97;63.05;100230.04;2301760;77;22576;-74
2023/04/01 20:56:20;;;;;;;;;;;;;;;17.95;63.05;100238.77;2297463;77;50316;-73